Time;durP1;ratioP1;P1;durP2;ratioP2;P2;SDS_P1;SDS_P2;PMS_P1;PMS_P2;Temp;Humidity;BMP_temperature;BMP_pressure;BME280_temperature;BME280_humidity;BME280_pressure;Samples;Min_cycle;Max_cycle;Signal;HPM_P1;HPM_P2
2024/04/15 00:00:06;;;;;;;0.57;0.20;;;15.00;88.80;;;;;;4185989;28;20055;-61
2024/04/15 00:02:07;;;;;;;0.60;0.30;;;15.00;86.80;;;;;;4191389;28;20529;-60
2024/04/15 00:04:08;;;;;;;0.35;0.17;;;14.90;88.20;;;;;;4182357;28;20087;-60
2024/04/15 00:06:10;;;;;;;0.60;0.50;;;15.00;88.20;;;;;;4192582;28;20445;-61
2024/04/15 00:08:11;;;;;;;1.38;0.75;;;14.90;88.40;;;;;;4184106;28;20043;-63
2024/04/15 00:10:14;;;;;;;0.75;0.75;;;15.00;88.90;;;;;;4183624;28;20142;-61
2024/04/15 00:12:17;;;;;;;0.52;0.20;;;15.00;89.50;;;;;;4187685;28;20127;-60
2024/04/15 00:14:18;;;;;;;1.00;0.20;;;15.00;88.50;;;;;;4198490;28;20051;-60
2024/04/15 00:16:19;;;;;;;1.65;0.57;;;15.00;88.50;;;;;;4188927;28;20045;-60
2024/04/15 00:18:24;;;;;;;0.20;0.08;;;14.90;88.10;;;;;;4194953;28;20045;-60
2024/04/15 00:20:29;;;;;;;0.80;0.52;;;14.90;87.90;;;;;;4196721;28;20049;-60
2024/04/15 00:22:31;;;;;;;1.17;0.28;;;14.90;88.40;;;;;;4186503;28;20068;-60
2024/04/15 00:24:32;;;;;;;4.55;1.15;;;14.90;88.70;;;;;;4198384;28;20060;-60
2024/04/15 00:26:36;;;;;;;0.10;0.10;;;14.90;88.80;;;;;;4194051;28;20071;-60
2024/04/15 00:28:37;;;;;;;0.52;0.30;;;14.90;88.10;;;;;;4185750;28;20094;-60
2024/04/15 00:30:38;;;;;;;2.30;0.57;;;14.90;89.30;;;;;;4183139;28;20430;-60
2024/04/15 00:32:40;;;;;;;1.75;0.28;;;14.90;89.10;;;;;;4193118;28;20052;-61
2024/04/15 00:34:41;;;;;;;0.35;0.30;;;14.90;88.30;;;;;;4181915;28;20049;-63
2024/04/15 00:36:44;;;;;;;0.93;0.93;;;14.80;88.50;;;;;;4185514;28;20068;-60
2024/04/15 00:38:45;;;;;;;0.45;0.20;;;14.80;88.60;;;;;;4192414;28;20486;-61
2024/04/15 00:40:47;;;;;;;0.88;0.35;;;14.90;88.80;;;;;;4196913;28;20071;-60
2024/04/15 00:42:50;;;;;;;0.43;0.17;;;14.80;88.70;;;;;;4186767;28;20528;-60
2024/04/15 00:44:51;;;;;;;0.88;0.30;;;14.90;88.70;;;;;;4197847;28;20051;-59
2024/04/15 00:46:52;;;;;;;1.38;0.60;;;14.80;90.00;;;;;;4192839;28;20033;-60
2024/04/15 00:48:53;;;;;;;0.88;0.50;;;14.90;90.10;;;;;;4190968;28;20503;-60
2024/04/15 00:50:55;;;;;;;0.28;0.13;;;14.80;89.60;;;;;;4198681;28;20057;-65
2024/04/15 00:52:57;;;;;;;3.72;0.17;;;14.80;89.60;;;;;;4193986;28;20045;-61
2024/04/15 00:54:59;;;;;;;1.35;0.35;;;14.80;90.10;;;;;;4181800;28;20089;-60
2024/04/15 00:57:01;;;;;;;0.88;0.30;;;14.90;89.20;;;;;;4184643;28;20049;-61
2024/04/15 00:59:04;;;;;;;0.98;0.30;;;14.90;90.00;;;;;;4190229;28;20041;-62
2024/04/15 01:01:05;;;;;;;1.15;0.55;;;14.90;90.10;;;;;;4181216;28;20045;-60
2024/04/15 01:03:07;;;;;;;1.85;0.73;;;14.80;88.60;;;;;;4187092;28;20045;-60
2024/04/15 01:05:09;;;;;;;2.08;0.40;;;14.80;90.40;;;;;;4213714;28;20048;-61
2024/04/15 01:07:11;;;;;;;0.63;0.60;;;14.90;90.00;;;;;;4196158;28;20037;-60
2024/04/15 01:09:12;;;;;;;3.70;1.60;;;14.80;90.40;;;;;;4187851;28;20098;-64
2024/04/15 01:11:13;;;;;;;0.95;0.20;;;14.90;90.50;;;;;;4199278;28;20045;-61
2024/04/15 01:13:15;;;;;;;0.63;0.60;;;14.70;87.70;;;;;;4188721;28;20053;-60
2024/04/15 01:15:18;;;;;;;4.95;0.40;;;14.70;89.50;;;;;;4194728;28;20048;-61
2024/04/15 01:17:19;;;;;;;0.90;0.47;;;14.80;90.10;;;;;;4195668;28;20053;-59
2024/04/15 01:19:20;;;;;;;1.83;1.42;;;14.60;88.00;;;;;;4169788;28;20044;-59
2024/04/15 01:21:21;;;;;;;2.28;0.30;;;14.60;88.80;;;;;;4197229;28;20081;-60
2024/04/15 01:23:23;;;;;;;1.73;0.57;;;14.60;88.60;;;;;;4192538;28;20052;-60
2024/04/15 01:25:26;;;;;;;0.45;0.35;;;14.60;88.50;;;;;;4185819;28;20041;-60
2024/04/15 01:27:27;;;;;;;0.32;0.30;;;14.60;88.60;;;;;;4182276;28;20446;-60
2024/04/15 01:29:29;;;;;;;0.40;0.20;;;14.60;90.00;;;;;;4196864;28;20044;-64
2024/04/15 01:31:30;;;;;;;0.20;0.10;;;14.50;88.80;;;;;;4181456;28;20075;-63
2024/04/15 01:33:31;;;;;;;0.68;0.20;;;14.50;90.70;;;;;;4192514;28;20045;-59
2024/04/15 01:35:32;;;;;;;0.45;0.10;;;14.40;90.00;;;;;;4190896;28;20532;-60
2024/04/15 01:37:33;;;;;;;0.35;0.20;;;14.40;89.70;;;;;;4197123;28;20045;-63
2024/04/15 01:39:34;;;;;;;0.70;0.50;;;14.30;89.20;;;;;;4185019;28;20091;-60
2024/04/15 01:41:40;;;;;;;2.05;0.95;;;14.20;89.40;;;;;;4197106;28;20348;-60
2024/04/15 01:43:41;;;;;;;2.38;0.40;;;14.20;90.30;;;;;;4192416;28;20051;-59
2024/04/15 01:45:42;;;;;;;4.32;0.60;;;14.10;91.00;;;;;;4188911;28;20040;-59
2024/04/15 01:47:45;;;;;;;3.70;0.60;;;14.20;90.00;;;;;;4196848;28;20063;-59
2024/04/15 01:49:46;;;;;;;0.47;0.47;;;14.10;90.70;;;;;;4184842;28;20049;-59
2024/04/15 01:51:48;;;;;;;1.25;1.05;;;14.20;89.80;;;;;;4195902;28;20046;-59
2024/04/15 01:53:50;;;;;;;0.85;0.30;;;14.00;88.30;;;;;;4193655;28;20040;-60
2024/04/15 01:55:51;;;;;;;1.88;1.08;;;14.00;88.80;;;;;;4187850;28;20449;-64
2024/04/15 01:57:53;;;;;;;0.25;0.10;;;14.00;90.30;;;;;;4196506;28;20825;-59
2024/04/15 01:59:54;;;;;;;1.88;1.17;;;14.00;90.80;;;;;;4186169;28;20044;-60
2024/04/15 02:01:55;;;;;;;1.98;1.05;;;13.90;88.40;;;;;;4177725;28;20049;-60
2024/04/15 02:03:58;;;;;;;1.58;1.00;;;14.00;90.20;;;;;;4194496;28;20407;-61
2024/04/15 02:05:59;;;;;;;2.95;1.35;;;13.90;88.20;;;;;;4185345;28;20058;-59
2024/04/15 02:08:01;;;;;;;1.17;0.50;;;13.90;88.10;;;;;;4196860;28;20048;-59
2024/04/15 02:10:02;;;;;;;1.80;0.80;;;13.80;87.90;;;;;;4192032;28;20056;-59
2024/04/15 02:12:07;;;;;;;1.02;0.30;;;13.60;88.40;;;;;;4183803;28;20051;-60
2024/04/15 02:14:10;;;;;;;0.93;0.60;;;13.60;89.50;;;;;;4181096;28;20041;-65
2024/04/15 02:16:11;;;;;;;2.17;1.15;;;13.50;89.40;;;;;;4191057;28;20049;-60
2024/04/15 02:18:12;;;;;;;1.55;0.82;;;13.60;91.20;;;;;;4180162;28;20395;-60
2024/04/15 02:20:13;;;;;;;1.85;0.60;;;13.70;89.90;;;;;;4186423;28;20063;-60
2024/04/15 02:22:14;;;;;;;0.25;0.13;;;13.60;90.00;;;;;;4187248;28;20571;-60
2024/04/15 02:24:15;;;;;;;0.38;0.13;;;13.60;90.60;;;;;;4195740;28;20052;-60
2024/04/15 02:26:16;;;;;;;2.60;0.50;;;13.50;90.90;;;;;;4190321;28;20055;-59
2024/04/15 02:28:17;;;;;;;1.15;0.73;;;13.50;90.60;;;;;;4179485;28;20053;-60
2024/04/15 02:30:20;;;;;;;1.02;0.38;;;13.60;91.00;;;;;;4184514;28;20051;-60
2024/04/15 02:32:21;;;;;;;0.88;0.82;;;13.60;91.20;;;;;;4183988;28;20060;-60
2024/04/15 02:34:24;;;;;;;3.75;1.70;;;13.70;91.20;;;;;;4179948;28;20053;-60
2024/04/15 02:36:28;;;;;;;3.47;1.13;;;13.50;90.70;;;;;;4185314;28;20090;-60
2024/04/15 02:38:30;;;;;;;0.60;0.40;;;13.60;91.80;;;;;;4196725;28;20048;-61
2024/04/15 02:40:31;;;;;;;0.30;0.15;;;13.70;91.30;;;;;;4175511;28;20045;-60
2024/04/15 02:42:32;;;;;;;1.95;0.77;;;13.80;91.30;;;;;;4187363;28;20083;-60
2024/04/15 02:44:33;;;;;;;0.55;0.22;;;13.80;90.80;;;;;;4196302;28;20053;-61
2024/04/15 02:46:36;;;;;;;2.50;0.55;;;13.80;91.10;;;;;;4184694;28;20045;-60
2024/04/15 02:48:37;;;;;;;2.50;0.50;;;13.80;91.00;;;;;;4194955;28;20048;-60
2024/04/15 02:50:38;;;;;;;1.35;0.30;;;13.80;90.80;;;;;;4193854;28;20162;-60
2024/04/15 02:52:41;;;;;;;3.47;0.57;;;13.80;91.80;;;;;;4185670;28;20040;-60
2024/04/15 02:54:42;;;;;;;7.35;1.25;;;13.80;91.40;;;;;;4195906;28;20087;-60
2024/04/15 02:56:43;;;;;;;1.52;0.40;;;13.90;91.80;;;;;;4190661;28;20044;-60
2024/04/15 02:58:44;;;;;;;1.85;0.93;;;13.70;91.00;;;;;;4182376;28;20390;-60
2024/04/15 03:00:45;;;;;;;3.35;0.32;;;13.70;90.70;;;;;;4181047;28;20051;-61
2024/04/15 03:02:53;;;;;;;1.08;0.25;;;13.70;91.20;;;;;;4195438;28;20056;-64
2024/04/15 03:04:54;;;;;;;6.50;1.65;;;13.70;92.30;;;;;;4179297;28;20057;-61
2024/04/15 03:06:55;;;;;;;1.30;0.60;;;13.70;91.90;;;;;;4187435;28;20055;-60
2024/04/15 03:08:56;;;;;;;0.43;0.38;;;13.60;91.80;;;;;;4192322;28;20040;-60
2024/04/15 03:11:07;;;;;;;1.23;0.65;;;13.50;91.40;;;;;;4194363;28;20102;-63
2024/04/15 03:13:11;;;;;;;1.23;0.35;;;13.60;91.80;;;;;;4185016;28;20450;-60
2024/04/15 03:15:13;;;;;;;2.03;0.50;;;13.50;92.00;;;;;;4196510;28;20044;-64
2024/04/15 03:17:14;;;;;;;1.30;0.70;;;13.60;91.80;;;;;;4188281;28;20049;-60
2024/04/15 03:19:18;;;;;;;0.98;0.60;;;13.60;92.50;;;;;;4192053;28;20572;-62
2024/04/15 03:21:19;;;;;;;0.55;0.40;;;13.50;91.50;;;;;;4194205;28;20052;-60
2024/04/15 03:23:20;;;;;;;0.30;0.20;;;13.50;91.80;;;;;;4193205;28;20056;-64
2024/04/15 03:25:22;;;;;;;0.30;0.10;;;13.50;92.40;;;;;;4195736;28;20123;-59
2024/04/15 03:27:23;;;;;;;0.73;0.65;;;13.50;92.00;;;;;;4189233;28;20045;-60
2024/04/15 03:29:24;;;;;;;0.95;0.38;;;13.60;92.20;;;;;;4189803;28;20132;-59
2024/04/15 03:31:26;;;;;;;1.55;0.65;;;13.50;92.60;;;;;;4191520;28;20453;-60
2024/04/15 03:33:27;;;;;;;1.88;0.77;;;13.50;92.60;;;;;;4190370;28;20086;-60
2024/04/15 03:35:29;;;;;;;1.08;0.95;;;13.40;92.20;;;;;;4178829;28;20505;-60
2024/04/15 03:37:30;;;;;;;1.45;0.40;;;13.30;92.40;;;;;;4183246;28;20095;-60
2024/04/15 03:39:31;;;;;;;1.77;0.65;;;13.40;93.50;;;;;;4186317;28;20037;-60
2024/04/15 03:41:32;;;;;;;0.30;0.22;;;13.40;93.00;;;;;;4178797;28;20049;-59
2024/04/15 03:43:34;;;;;;;0.73;0.60;;;13.40;92.60;;;;;;4190669;28;20051;-61
2024/04/15 03:45:35;;;;;;;1.33;0.90;;;13.20;92.90;;;;;;4179573;28;20052;-61
2024/04/15 03:47:36;;;;;;;1.15;0.50;;;13.30;93.10;;;;;;4166282;28;20041;-59
2024/04/15 03:49:37;;;;;;;1.05;0.40;;;13.10;92.90;;;;;;4185499;28;20048;-60
2024/04/15 03:51:40;;;;;;;1.15;0.20;;;13.10;93.70;;;;;;4195598;28;20502;-60
2024/04/15 03:53:41;;;;;;;2.08;0.52;;;13.00;93.70;;;;;;4184551;28;20052;-60
2024/04/15 03:55:50;;;;;;;1.30;0.50;;;12.90;93.50;;;;;;4176760;28;20045;-60
2024/04/15 03:57:51;;;;;;;3.25;1.05;;;12.90;93.80;;;;;;4193087;28;20075;-60
2024/04/15 03:59:53;;;;;;;1.23;0.50;;;12.90;93.70;;;;;;4184649;28;20048;-60
2024/04/15 04:01:55;;;;;;;1.45;0.50;;;12.90;93.90;;;;;;4195389;28;20056;-60
2024/04/15 04:03:56;;;;;;;1.23;0.20;;;12.90;93.30;;;;;;4186065;28;20049;-60
2024/04/15 04:05:57;;;;;;;1.20;0.25;;;12.80;93.50;;;;;;4192632;28;20520;-61
2024/04/15 04:08:00;;;;;;;1.02;0.40;;;12.80;93.10;;;;;;4194082;28;20466;-61
2024/04/15 04:10:01;;;;;;;1.17;0.40;;;12.80;93.20;;;;;;4184344;28;20127;-61
2024/04/15 04:12:03;;;;;;;3.63;0.45;;;12.70;93.40;;;;;;4195479;28;20044;-61
2024/04/15 04:14:04;;;;;;;2.55;0.38;;;12.70;93.50;;;;;;4171165;28;20088;-65
2024/04/15 04:16:10;;;;;;;2.97;0.95;;;12.70;93.70;;;;;;4173889;28;20060;-60
2024/04/15 04:18:11;;;;;;;4.60;2.15;;;12.80;93.40;;;;;;4192524;28;20520;-60
2024/04/15 04:20:12;;;;;;;2.58;0.32;;;12.60;93.90;;;;;;4189894;28;20110;-60
2024/04/15 04:22:14;;;;;;;1.10;0.75;;;12.60;93.70;;;;;;4180394;28;20045;-60
2024/04/15 04:24:16;;;;;;;1.48;0.98;;;12.70;94.10;;;;;;4190667;28;20041;-60
2024/04/15 04:26:17;;;;;;;4.25;0.75;;;12.60;93.80;;;;;;4184591;28;20095;-61
2024/04/15 04:28:19;;;;;;;14.15;0.45;;;12.50;93.40;;;;;;4182727;28;20056;-67
2024/04/15 04:30:20;;;;;;;1.55;0.47;;;12.40;93.40;;;;;;4193485;28;20052;-60
2024/04/15 04:32:21;;;;;;;1.02;0.40;;;12.30;93.60;;;;;;4181578;28;20072;-59
2024/04/15 04:34:22;;;;;;;0.55;0.50;;;12.40;94.30;;;;;;4169237;28;20041;-60
2024/04/15 04:36:24;;;;;;;6.65;0.32;;;12.40;93.80;;;;;;4189429;28;20044;-60
2024/04/15 04:38:25;;;;;;;1.27;0.30;;;12.50;93.90;;;;;;4181878;28;20053;-60
2024/04/15 04:40:28;;;;;;;2.95;1.33;;;12.50;93.80;;;;;;4193542;28;20045;-59
2024/04/15 04:42:29;;;;;;;1.55;0.50;;;12.40;93.80;;;;;;4181710;28;20052;-60
2024/04/15 04:44:32;;;;;;;1.48;1.00;;;12.40;94.00;;;;;;4183968;28;20048;-59
2024/04/15 04:46:33;;;;;;;0.63;0.60;;;12.40;94.10;;;;;;4191028;28;20044;-60
2024/04/15 04:48:34;;;;;;;1.58;1.10;;;12.40;93.50;;;;;;4181859;28;20171;-60
2024/04/15 04:50:35;;;;;;;1.13;0.47;;;12.40;93.90;;;;;;4175039;28;20041;-60
2024/04/15 04:52:36;;;;;;;1.38;0.82;;;12.40;94.40;;;;;;4184653;28;20094;-69
2024/04/15 04:54:37;;;;;;;1.63;0.50;;;12.30;94.00;;;;;;4183280;28;20053;-59
2024/04/15 04:56:41;;;;;;;0.77;0.30;;;12.30;94.00;;;;;;4197859;28;20044;-62
2024/04/15 04:58:44;;;;;;;13.80;1.38;;;12.30;94.30;;;;;;4197974;28;20049;-61
2024/04/15 05:00:45;;;;;;;0.85;0.20;;;12.30;94.20;;;;;;4188924;28;20083;-60
2024/04/15 05:02:46;;;;;;;1.45;0.80;;;12.20;94.20;;;;;;4194097;28;20044;-59
2024/04/15 05:04:47;;;;;;;1.23;0.63;;;12.20;94.20;;;;;;4196359;28;20060;-60
2024/04/15 05:06:48;;;;;;;1.30;1.02;;;12.30;94.60;;;;;;4169440;28;20045;-59
2024/04/15 05:08:49;;;;;;;1.48;0.93;;;12.20;93.90;;;;;;4197425;28;20136;-60
2024/04/15 05:10:50;;;;;;;0.40;0.40;;;12.20;94.90;;;;;;4190536;28;20075;-60
2024/04/15 05:12:53;;;;;;;3.03;1.77;;;12.10;94.80;;;;;;4191781;28;20406;-60
2024/04/15 05:14:54;;;;;;;0.80;0.75;;;12.00;94.20;;;;;;4196468;28;20094;-59
2024/04/15 05:16:55;;;;;;;0.68;0.30;;;12.00;94.60;;;;;;4191856;28;20456;-62
2024/04/15 05:18:56;;;;;;;0.40;0.30;;;12.10;94.90;;;;;;4180996;28;20561;-59
2024/04/15 05:20:59;;;;;;;1.30;0.77;;;12.00;94.20;;;;;;4184295;28;20075;-61
2024/04/15 05:23:00;;;;;;;0.63;0.25;;;12.00;94.70;;;;;;4203622;28;20036;-60
2024/04/15 05:25:01;;;;;;;0.50;0.30;;;11.90;94.70;;;;;;4197276;28;20044;-59
2024/04/15 05:27:03;;;;;;;1.23;0.30;;;12.00;95.30;;;;;;4176297;28;20491;-59
2024/04/15 05:29:06;;;;;;;3.40;0.50;;;12.10;94.90;;;;;;4180789;28;20045;-63
2024/04/15 05:31:07;;;;;;;4.30;0.73;;;12.00;94.60;;;;;;4167358;28;20061;-59
2024/04/15 05:33:09;;;;;;;0.30;0.30;;;11.80;94.60;;;;;;4190033;28;20045;-59
2024/04/15 05:35:10;;;;;;;0.68;0.57;;;11.90;95.00;;;;;;4180849;28;20045;-59
2024/04/15 05:37:12;;;;;;;3.13;0.85;;;11.90;95.10;;;;;;4191735;28;20055;-59
2024/04/15 05:39:13;;;;;;;0.13;0.13;;;11.80;94.30;;;;;;4181164;28;20549;-59
2024/04/15 05:41:14;;;;;;;0.85;0.57;;;11.90;95.30;;;;;;4181685;28;20045;-59
2024/04/15 05:43:15;;;;;;;1.88;1.33;;;12.00;94.70;;;;;;4202761;28;20062;-59
2024/04/15 05:45:18;;;;;;;0.22;0.20;;;11.90;94.60;;;;;;4180462;28;20041;-59
2024/04/15 05:47:19;;;;;;;0.30;0.30;;;12.10;95.50;;;;;;4188160;28;20049;-60
2024/04/15 05:49:20;;;;;;;1.65;0.82;;;12.10;94.70;;;;;;4193124;28;20058;-59
2024/04/15 05:51:21;;;;;;;2.67;0.40;;;12.00;94.70;;;;;;4195536;28;20487;-59
2024/04/15 05:53:22;;;;;;;1.30;1.20;;;12.10;94.10;;;;;;4185443;28;20044;-60
2024/04/15 05:55:24;;;;;;;0.47;0.35;;;11.90;93.70;;;;;;4196997;28;20045;-61
2024/04/15 05:57:25;;;;;;;1.65;0.95;;;12.00;94.80;;;;;;4190170;28;20103;-60
2024/04/15 05:59:26;;;;;;;3.80;0.68;;;12.00;94.80;;;;;;4192066;28;20052;-60
2024/04/15 06:01:28;;;;;;;1.63;0.50;;;12.00;95.00;;;;;;4196467;28;20475;-61
2024/04/15 06:03:32;;;;;;;1.15;0.55;;;12.00;94.50;;;;;;4208205;28;20109;-62
2024/04/15 06:05:34;;;;;;;0.43;0.25;;;12.00;94.60;;;;;;4180489;28;20384;-60
2024/04/15 06:07:35;;;;;;;0.40;0.20;;;12.00;94.40;;;;;;4185710;28;20094;-60
2024/04/15 06:09:36;;;;;;;2.55;0.75;;;12.10;94.60;;;;;;4196826;28;20040;-60
2024/04/15 06:11:37;;;;;;;1.10;0.30;;;12.20;94.50;;;;;;4163491;28;20056;-60
2024/04/15 06:13:38;;;;;;;0.77;0.32;;;12.10;94.40;;;;;;4183996;28;20049;-59
2024/04/15 06:15:42;;;;;;;5.45;1.98;;;12.00;94.00;;;;;;4195642;28;20080;-60
2024/04/15 06:17:46;;;;;;;3.40;1.70;;;12.00;94.20;;;;;;4192003;28;20052;-60
2024/04/15 06:19:47;;;;;;;14.68;2.63;;;11.90;93.80;;;;;;4187993;28;20067;-61
2024/04/15 06:21:48;;;;;;;2.55;0.80;;;11.90;94.50;;;;;;4196910;28;20040;-65
2024/04/15 06:23:50;;;;;;;2.92;1.00;;;11.90;93.90;;;;;;4191945;28;20059;-60
2024/04/15 06:25:51;;;;;;;3.88;0.50;;;12.00;94.00;;;;;;4181115;28;20544;-59
2024/04/15 06:27:52;;;;;;;0.63;0.43;;;12.00;94.70;;;;;;4182192;28;20040;-61
2024/04/15 06:29:53;;;;;;;2.10;0.68;;;12.00;93.90;;;;;;4190318;28;20466;-60
2024/04/15 06:31:54;;;;;;;2.67;0.70;;;11.90;93.90;;;;;;4179989;28;20045;-60
2024/04/15 06:33:57;;;;;;;1.48;0.75;;;11.90;94.00;;;;;;4184649;28;20102;-60
2024/04/15 06:35:58;;;;;;;1.70;0.65;;;12.00;94.30;;;;;;4193395;28;20267;-60
2024/04/15 06:37:59;;;;;;;4.18;1.17;;;12.10;94.10;;;;;;4194701;28;20387;-62
2024/04/15 06:40:02;;;;;;;0.15;0.15;;;12.20;93.90;;;;;;4184857;28;20529;-61
2024/04/15 06:42:04;;;;;;;1.65;0.30;;;12.20;94.20;;;;;;4196115;28;20048;-60
2024/04/15 06:44:05;;;;;;;1.23;0.85;;;12.20;94.40;;;;;;4188640;28;20044;-65
2024/04/15 06:46:07;;;;;;;2.22;0.52;;;12.40;94.10;;;;;;4180156;28;20434;-60
2024/04/15 06:48:08;;;;;;;8.82;2.42;;;12.50;93.90;;;;;;4164485;28;20049;-61
2024/04/15 06:50:12;;;;;;;5.88;0.52;;;12.50;93.80;;;;;;4190598;28;20044;-61
2024/04/15 06:52:13;;;;;;;1.05;0.40;;;12.40;93.80;;;;;;4179695;28;20048;-60
2024/04/15 06:54:14;;;;;;;1.60;0.65;;;12.50;93.70;;;;;;4185419;28;20052;-60
2024/04/15 06:56:15;;;;;;;1.35;0.85;;;12.50;93.50;;;;;;4185610;28;20049;-60
2024/04/15 06:58:16;;;;;;;5.35;0.40;;;12.40;93.40;;;;;;4179456;28;20053;-60
2024/04/15 07:00:18;;;;;;;1.77;0.43;;;12.50;93.60;;;;;;4195859;28;20045;-60
2024/04/15 07:02:22;;;;;;;0.50;0.40;;;12.50;93.60;;;;;;4179087;28;20044;-60
2024/04/15 07:04:23;;;;;;;0.77;0.30;;;12.50;93.70;;;;;;4167357;28;20098;-60
2024/04/15 07:06:26;;;;;;;3.40;1.30;;;12.60;94.00;;;;;;4187598;28;20051;-61
2024/04/15 07:08:28;;;;;;;0.52;0.32;;;12.60;93.20;;;;;;4179508;28;20435;-60
2024/04/15 07:10:29;;;;;;;0.63;0.20;;;12.70;93.20;;;;;;4191504;28;20094;-60
2024/04/15 07:12:30;;;;;;;0.68;0.50;;;12.70;93.00;;;;;;4179399;28;20045;-60
2024/04/15 07:14:31;;;;;;;0.75;0.40;;;12.70;92.80;;;;;;4181922;28;20041;-61
2024/04/15 07:16:32;;;;;;;0.40;0.35;;;12.90;92.70;;;;;;4155818;28;20053;-61
2024/04/15 07:18:33;;;;;;;5.00;1.08;;;13.00;92.70;;;;;;4179543;28;20099;-61
2024/04/15 07:20:35;;;;;;;1.17;0.35;;;13.00;92.90;;;;;;4189570;28;20519;-59
2024/04/15 07:22:37;;;;;;;1.38;0.65;;;12.90;92.10;;;;;;4186854;28;20071;-59
2024/04/15 07:24:39;;;;;;;1.88;0.50;;;13.00;92.60;;;;;;4192096;28;20060;-59
2024/04/15 07:26:41;;;;;;;2.40;0.95;;;12.80;92.10;;;;;;4190868;28;20518;-60
2024/04/15 07:28:42;;;;;;;1.75;0.70;;;12.70;92.40;;;;;;4180193;28;20041;-60
2024/04/15 07:30:43;;;;;;;9.07;0.40;;;12.90;92.60;;;;;;4187847;28;20045;-61
2024/04/15 07:32:45;;;;;;;1.17;0.73;;;12.80;91.70;;;;;;4180786;28;20126;-59
2024/04/15 07:34:52;;;;;;;7.45;0.50;;;13.10;92.30;;;;;;4180472;28;20091;-61
2024/04/15 07:36:53;;;;;;;0.68;0.20;;;13.30;91.50;;;;;;4190603;28;20041;-61
2024/04/15 07:38:56;;;;;;;0.73;0.30;;;13.40;91.10;;;;;;4179320;28;20195;-60
2024/04/15 07:40:58;;;;;;;2.08;0.40;;;13.50;91.20;;;;;;4186445;28;20044;-61
2024/04/15 07:42:59;;;;;;;0.30;0.30;;;13.70;90.70;;;;;;4183995;28;20060;-60
2024/04/15 07:45:00;;;;;;;2.92;0.25;;;13.60;90.20;;;;;;4180538;28;20052;-61
2024/04/15 07:47:02;;;;;;;0.45;0.25;;;13.60;90.30;;;;;;4181808;28;20049;-60
2024/04/15 07:49:04;;;;;;;0.77;0.25;;;13.80;90.60;;;;;;4196140;28;20178;-62
2024/04/15 07:51:05;;;;;;;1.50;0.95;;;13.80;89.80;;;;;;4190375;28;20147;-60
2024/04/15 07:53:06;;;;;;;4.20;0.55;;;13.90;89.70;;;;;;4189379;28;20486;-60
2024/04/15 07:55:09;;;;;;;1.75;0.68;;;14.00;89.10;;;;;;4195036;28;20448;-63
2024/04/15 07:57:11;;;;;;;0.75;0.55;;;14.00;89.80;;;;;;4183351;28;20055;-61
2024/04/15 07:59:13;;;;;;;4.65;0.30;;;14.10;89.20;;;;;;4195009;28;20049;-60
2024/04/15 08:01:14;;;;;;;3.10;0.73;;;14.10;87.80;;;;;;4190733;28;20411;-60
2024/04/15 08:03:15;;;;;;;0.95;0.57;;;14.30;88.30;;;;;;4190677;28;20074;-60
2024/04/15 08:05:17;;;;;;;0.52;0.43;;;14.50;87.40;;;;;;4198674;28;20130;-61
2024/04/15 08:07:19;;;;;;;1.10;1.00;;;14.50;86.70;;;;;;4186388;28;20055;-60
2024/04/15 08:09:20;;;;;;;1.85;1.17;;;14.50;87.80;;;;;;4197832;28;20056;-61
2024/04/15 08:11:23;;;;;;;0.45;0.20;;;14.50;89.10;;;;;;4196594;28;20169;-60
2024/04/15 08:13:25;;;;;;;1.10;0.40;;;14.60;86.00;;;;;;4189380;28;20048;-61
2024/04/15 08:15:26;;;;;;;0.63;0.25;;;14.60;85.50;;;;;;4198480;28;20052;-61
2024/04/15 08:17:30;;;;;;;2.90;0.45;;;14.90;85.80;;;;;;4188574;28;20066;-60
2024/04/15 08:19:31;;;;;;;1.43;0.43;;;14.90;84.40;;;;;;4196939;28;20457;-61
2024/04/15 08:21:32;;;;;;;1.02;0.75;;;14.60;85.20;;;;;;4194827;28;20466;-64
2024/04/15 08:23:36;;;;;;;0.88;0.32;;;14.50;83.50;;;;;;4197908;28;20049;-60
2024/04/15 08:25:37;;;;;;;3.08;0.73;;;14.60;84.00;;;;;;4198233;28;20048;-60
2024/04/15 08:27:40;;;;;;;0.90;0.57;;;14.80;85.30;;;;;;4189340;28;20045;-60
2024/04/15 08:29:44;;;;;;;1.35;0.85;;;15.00;84.20;;;;;;4194773;28;20044;-61
2024/04/15 08:31:48;;;;;;;2.10;0.67;;;15.10;84.40;;;;;;4195397;28;20036;-64
2024/04/15 08:33:49;;;;;;;0.20;0.13;;;15.10;83.60;;;;;;4187762;28;20131;-60
2024/04/15 08:35:51;;;;;;;0.98;0.20;;;15.10;84.70;;;;;;4198347;28;20048;-61
2024/04/15 08:37:52;;;;;;;1.35;0.17;;;15.20;85.20;;;;;;4189953;28;20088;-60
2024/04/15 08:39:53;;;;;;;0.70;0.63;;;15.20;83.10;;;;;;4193387;28;20059;-60
2024/04/15 08:41:59;;;;;;;2.10;0.55;;;14.90;83.00;;;;;;4196798;28;20154;-60
2024/04/15 08:44:05;;;;;;;1.75;0.50;;;14.90;83.80;;;;;;4186357;28;20044;-60
2024/04/15 08:46:09;;;;;;;1.88;0.30;;;14.70;83.80;;;;;;4198120;28;20268;-62
2024/04/15 08:48:14;;;;;;;1.05;0.60;;;14.60;84.60;;;;;;4190164;28;20041;-60
2024/04/15 08:50:15;;;;;;;1.55;0.40;;;14.70;84.60;;;;;;4193853;28;20402;-61
2024/04/15 08:52:17;;;;;;;6.07;1.17;;;14.80;84.80;;;;;;4196222;28;20166;-59
2024/04/15 08:54:18;;;;;;;1.55;0.70;;;14.90;84.30;;;;;;4187341;28;20095;-60
2024/04/15 08:56:19;;;;;;;2.38;1.15;;;14.80;84.10;;;;;;4198291;28;20048;-61
2024/04/15 08:58:22;;;;;;;0.77;0.30;;;14.90;85.40;;;;;;4196470;28;20044;-60
2024/04/15 09:00:25;;;;;;;0.35;0.30;;;14.70;84.80;;;;;;4187775;28;20115;-60
2024/04/15 09:02:31;;;;;;;0.65;0.30;;;14.50;84.20;;;;;;4182040;28;20048;-60
2024/04/15 09:04:33;;;;;;;1.10;0.10;;;14.50;84.40;;;;;;4183218;28;20068;-60
2024/04/15 09:06:34;;;;;;;1.17;0.73;;;14.50;84.50;;;;;;4197968;28;20045;-60
2024/04/15 09:08:35;;;;;;;0.50;0.35;;;14.50;84.40;;;;;;4191808;28;20045;-60
2024/04/15 09:10:36;;;;;;;20.98;0.98;;;14.80;84.90;;;;;;4190238;28;20033;-63
2024/04/15 09:12:38;;;;;;;3.15;0.50;;;14.70;85.10;;;;;;4196987;28;20102;-61
2024/04/15 09:14:39;;;;;;;1.38;0.60;;;14.80;85.90;;;;;;4186017;28;20041;-60
2024/04/15 09:16:42;;;;;;;1.38;0.28;;;14.70;84.70;;;;;;4198405;28;20049;-62
2024/04/15 09:18:44;;;;;;;0.98;0.28;;;14.70;85.30;;;;;;4210424;28;20093;-61
2024/04/15 09:20:46;;;;;;;0.52;0.30;;;14.70;85.80;;;;;;4189200;28;20072;-60
2024/04/15 09:22:47;;;;;;;0.70;0.52;;;14.70;84.70;;;;;;4197668;28;20067;-62
2024/04/15 09:24:48;;;;;;;1.02;0.15;;;14.50;84.50;;;;;;4193285;28;20048;-61
2024/04/15 09:26:50;;;;;;;0.40;0.10;;;14.30;85.20;;;;;;4182302;28;20067;-61
2024/04/15 09:28:52;;;;;;;0.20;0.20;;;14.30;86.50;;;;;;4182881;28;20040;-60
2024/04/15 09:30:53;;;;;;;2.10;0.20;;;14.30;86.00;;;;;;4191558;28;20045;-59
2024/04/15 09:32:57;;;;;;;1.23;0.73;;;14.30;86.20;;;;;;4181039;28;20045;-62
2024/04/15 09:35:00;;;;;;;1.05;0.93;;;14.40;85.90;;;;;;4190336;28;20122;-59
2024/04/15 09:37:01;;;;;;;0.38;0.20;;;14.40;85.00;;;;;;4184012;28;20055;-60
2024/04/15 09:39:03;;;;;;;0.20;0.20;;;14.60;84.80;;;;;;4181965;28;20053;-60
2024/04/15 09:41:06;;;;;;;0.52;0.10;;;14.50;84.90;;;;;;4191471;28;20079;-60
2024/04/15 09:43:12;;;;;;;0.10;0.10;;;14.40;85.20;;;;;;4180565;28;20064;-61
2024/04/15 09:45:14;;;;;;;0.17;0.17;;;14.50;85.70;;;;;;4188927;28;20093;-61
2024/04/15 09:47:16;;;;;;;0.20;0.20;;;14.50;85.50;;;;;;4184641;28;20052;-60
2024/04/15 09:49:21;;;;;;;0.30;0.17;;;14.50;85.40;;;;;;4182447;28;20040;-60
2024/04/15 09:51:23;;;;;;;;;;;14.50;86.20;;;;;;4193320;28;20045;-62
2024/04/15 09:53:35;;;;;;;0.10;0.10;;;14.60;85.30;;;;;;4181963;28;20294;-64
2024/04/15 09:55:43;;;;;;;;;;;14.60;84.80;;;;;;4190622;28;20056;-61
2024/04/15 09:57:46;;;;;;;0.43;0.38;;;14.80;84.90;;;;;;4166836;28;20326;-62
2024/04/15 09:59:54;;;;;;;0.50;0.05;;;14.80;84.30;;;;;;4182283;28;20046;-61
2024/04/15 10:01:57;;;;;;;0.10;0.00;;;14.80;83.90;;;;;;4180591;28;20079;-63
2024/04/15 10:04:02;;;;;;;1.88;1.27;;;14.90;85.30;;;;;;4180215;28;20040;-60
2024/04/15 10:06:08;;;;;;;0.30;0.25;;;14.90;84.40;;;;;;4181360;28;20045;-61
2024/04/15 10:08:09;;;;;;;0.00;0.00;;;15.10;84.30;;;;;;4195093;28;20510;-61
2024/04/15 10:10:10;;;;;;;1.25;0.75;;;15.20;83.60;;;;;;4195303;28;20040;-60
2024/04/15 10:12:12;;;;;;;0.88;0.20;;;15.50;83.70;;;;;;4180469;28;20452;-64
2024/04/15 10:14:13;;;;;;;1.17;0.32;;;15.50;83.70;;;;;;4180556;28;20052;-60
2024/04/15 10:16:19;;;;;;;0.10;0.10;;;15.50;83.20;;;;;;4184202;28;20428;-60
2024/04/15 10:18:22;;;;;;;0.90;0.20;;;15.50;83.30;;;;;;4195513;28;20123;-63
2024/04/15 10:20:28;;;;;;;0.45;0.10;;;15.50;83.30;;;;;;4196874;28;20044;-64
2024/04/15 10:22:31;;;;;;;0.70;0.50;;;15.60;82.50;;;;;;4186454;28;20040;-64
2024/04/15 10:24:32;;;;;;;1.10;0.43;;;15.80;82.10;;;;;;4195926;28;20044;-60
2024/04/15 10:26:33;;;;;;;0.73;0.50;;;15.80;81.40;;;;;;4187928;28;20045;-59
2024/04/15 10:28:34;;;;;;;1.20;0.10;;;15.70;80.40;;;;;;4192402;28;20044;-60
2024/04/15 10:30:37;;;;;;;0.17;0.10;;;15.80;80.40;;;;;;4194363;28;20037;-60
2024/04/15 10:32:43;;;;;;;0.45;0.15;;;15.70;80.20;;;;;;4190730;28;20045;-59
2024/04/15 10:34:48;;;;;;;0.47;0.20;;;15.70;80.60;;;;;;4179844;28;20073;-60